Time;durP1;ratioP1;P1;durP2;ratioP2;P2;SDS_P1;SDS_P2;PMS_P1;PMS_P2;Temp;Humidity;BMP_temperature;BMP_pressure;BME280_temperature;BME280_humidity;BME280_pressure;Samples;Min_cycle;Max_cycle;Signal;HPM_P1;HPM_P2
2022/11/11 00:01:04;;;;;;;7.40;0.90;;;15.00;83.20;;;;;;5097106;28;20027;-71
2022/11/11 00:03:30;;;;;;;5.82;1.08;;;15.00;83.50;;;;;;5094818;28;20043;-72
2022/11/11 00:06:04;;;;;;;4.45;1.17;;;15.00;83.70;;;;;;5074400;28;20036;-72
2022/11/11 00:08:30;;;;;;;8.63;1.10;;;15.00;84.70;;;;;;5077689;28;20104;-71
2022/11/11 00:11:07;;;;;;;9.45;0.93;;;15.00;84.60;;;;;;5086028;28;20220;-72
2022/11/11 00:13:34;;;;;;;8.05;1.10;;;15.00;85.40;;;;;;5096954;28;20435;-72
2022/11/11 00:16:11;;;;;;;8.18;1.00;;;15.00;85.30;;;;;;5096436;28;20032;-72
2022/11/11 00:27:16;;;;;;;8.45;1.50;;;15.00;86.30;;;;;;5091264;28;20062;-71
2022/11/11 00:29:46;;;;;;;5.47;1.13;;;15.10;86.90;;;;;;5073279;28;20356;-71
2022/11/11 00:32:23;;;;;;;6.65;1.65;;;15.10;86.70;;;;;;5090806;28;20063;-71
2022/11/11 00:37:39;;;;;;;9.20;1.30;;;15.10;86.20;;;;;;5096763;28;20566;-72
2022/11/11 00:40:06;;;;;;;7.18;1.30;;;15.10;87.50;;;;;;5097709;28;20172;-72
2022/11/11 00:42:32;;;;;;;5.63;1.02;;;15.10;86.20;;;;;;5097700;28;20150;-72
2022/11/11 00:44:57;;;;;;;7.07;1.73;;;15.10;85.50;;;;;;5078183;28;20049;-71
2022/11/11 00:53:01;;;;;;;9.13;1.00;;;15.20;86.10;;;;;;5093546;28;20383;-71
2022/11/11 00:55:26;;;;;;;7.30;1.40;;;15.10;86.30;;;;;;5098504;28;20032;-71
2022/11/11 00:57:52;;;;;;;4.53;1.15;;;15.10;86.60;;;;;;5097809;28;20030;-72
2022/11/11 01:00:17;;;;;;;6.45;1.10;;;15.10;86.80;;;;;;5094468;28;20394;-71
2022/11/11 01:02:43;;;;;;;9.43;1.50;;;15.10;87.20;;;;;;5093258;28;20107;-72
2022/11/11 01:05:09;;;;;;;6.32;1.20;;;15.10;87.80;;;;;;5094562;28;20036;-71
2022/11/11 01:07:34;;;;;;;7.93;1.17;;;15.10;88.00;;;;;;5094250;28;20193;-71
2022/11/11 01:10:00;;;;;;;10.02;1.75;;;15.10;88.80;;;;;;5092274;28;20027;-72
2022/11/11 01:12:26;;;;;;;7.00;1.33;;;15.10;89.10;;;;;;5097710;28;20594;-72
2022/11/11 01:14:52;;;;;;;7.65;1.52;;;15.10;89.60;;;;;;5092508;28;20031;-72
2022/11/11 01:17:18;;;;;;;10.75;1.30;;;15.10;89.70;;;;;;5079153;28;20118;-72
2022/11/11 01:19:44;;;;;;;12.70;1.67;;;15.10;89.60;;;;;;5097800;28;20126;-72
2022/11/11 01:22:10;;;;;;;9.13;1.40;;;15.10;90.10;;;;;;5096711;28;20529;-72
2022/11/11 01:24:37;;;;;;;10.20;1.60;;;15.10;89.70;;;;;;5095958;28;20044;-72
2022/11/11 01:27:02;;;;;;;8.95;1.13;;;15.10;89.60;;;;;;5096452;28;20134;-72
2022/11/11 01:29:28;;;;;;;9.82;1.40;;;15.10;89.90;;;;;;5074653;28;20054;-71
2022/11/11 01:31:54;;;;;;;8.18;1.50;;;15.10;90.00;;;;;;5095998;28;20475;-72
2022/11/11 01:34:19;;;;;;;7.50;1.40;;;15.10;89.90;;;;;;5090974;28;20039;-72
2022/11/11 01:36:45;;;;;;;9.07;1.65;;;15.10;90.00;;;;;;5092822;28;20608;-72
2022/11/11 01:39:10;;;;;;;12.70;1.45;;;15.10;90.00;;;;;;5075463;28;20035;-72
2022/11/11 01:41:37;;;;;;;6.50;1.70;;;15.10;89.30;;;;;;5097181;28;20234;-72
2022/11/11 01:44:17;;;;;;;12.90;1.30;;;15.10;89.30;;;;;;5099058;28;20039;-72
2022/11/11 01:46:45;;;;;;;8.50;1.35;;;15.10;89.50;;;;;;5097077;28;20538;-72
2022/11/11 01:49:29;;;;;;;7.20;1.27;;;15.00;89.60;;;;;;5102348;28;20487;-72
2022/11/11 01:52:26;;;;;;;6.70;1.08;;;15.10;88.70;;;;;;5099657;28;20306;-72
2022/11/11 01:55:01;;;;;;;7.65;1.35;;;15.10;89.20;;;;;;5101636;28;20042;-72
2022/11/11 01:57:43;;;;;;;8.57;1.80;;;15.10;88.80;;;;;;5083082;28;20066;-72
2022/11/11 02:00:12;;;;;;;5.88;0.98;;;15.10;88.30;;;;;;5099846;28;20366;-72
2022/11/11 02:02:49;;;;;;;14.35;1.50;;;15.10;89.10;;;;;;5098479;28;20040;-71
2022/11/11 02:08:07;;;;;;;10.52;1.30;;;15.10;89.40;;;;;;5098723;28;20031;-73
2022/11/11 02:10:33;;;;;;;9.70;1.38;;;15.10;90.10;;;;;;5098284;28;20106;-72
2022/11/11 02:15:43;;;;;;;6.68;1.30;;;15.10;90.80;;;;;;5080472;28;20189;-72
2022/11/11 02:18:10;;;;;;;12.32;1.85;;;15.00;90.90;;;;;;5096736;28;20020;-72
2022/11/11 02:20:42;;;;;;;12.63;1.92;;;15.10;90.90;;;;;;5099949;28;20038;-72
2022/11/11 02:23:13;;;;;;;13.65;1.73;;;15.00;91.00;;;;;;5100151;28;20035;-72
2022/11/11 02:25:43;;;;;;;9.65;2.15;;;15.00;90.90;;;;;;5098196;28;20130;-72
2022/11/11 02:28:09;;;;;;;15.20;2.00;;;15.00;90.90;;;;;;5099934;28;20050;-73
2022/11/11 02:30:35;;;;;;;10.77;2.00;;;15.00;90.60;;;;;;5098604;28;20031;-73
2022/11/11 02:33:01;;;;;;;12.23;1.92;;;15.00;90.70;;;;;;5087115;28;20335;-73
2022/11/11 02:35:37;;;;;;;12.05;1.60;;;15.00;90.80;;;;;;5095144;28;20038;-73
2022/11/11 02:38:08;;;;;;;12.15;1.77;;;15.00;91.00;;;;;;5096913;28;20071;-73
2022/11/11 02:41:55;;;;;;;;;;;14.90;90.80;;;;;;5100878;28;20027;-73
2022/11/11 02:43:30;;;;;;;12.57;1.98;;;15.00;91.00;;;;;;5096782;28;19916;-73
2022/11/11 02:45:57;;;;;;;8.20;1.15;;;15.00;90.90;;;;;;5094998;28;20027;-73
2022/11/11 02:48:23;;;;;;;13.18;1.70;;;14.90;91.10;;;;;;5102075;28;20023;-73
2022/11/11 02:50:49;;;;;;;8.77;2.03;;;14.90;91.30;;;;;;5090484;28;20020;-73
2022/11/11 02:53:15;;;;;;;14.65;2.30;;;14.90;91.90;;;;;;5075783;28;20036;-72
2022/11/11 02:55:41;;;;;;;18.27;2.30;;;14.80;92.30;;;;;;5076022;28;20055;-73
2022/11/11 02:58:07;;;;;;;16.10;2.50;;;14.80;92.50;;;;;;5070845;28;20550;-73
2022/11/11 03:00:33;;;;;;;20.20;2.35;;;14.80;92.60;;;;;;5091246;28;20513;-73
2022/11/11 03:02:58;;;;;;;11.63;2.10;;;14.70;92.60;;;;;;5092054;28;20142;-73
2022/11/11 03:05:24;;;;;;;15.60;2.20;;;14.70;92.70;;;;;;5075538;28;20114;-72
2022/11/11 03:07:49;;;;;;;14.32;2.42;;;14.70;92.60;;;;;;5096118;28;20039;-72
2022/11/11 03:10:15;;;;;;;12.43;2.35;;;14.60;92.60;;;;;;5078516;28;20117;-72
2022/11/11 03:12:41;;;;;;;19.45;2.30;;;14.60;92.70;;;;;;5089042;28;20059;-73
2022/11/11 03:15:07;;;;;;;14.30;2.35;;;14.60;92.60;;;;;;5080762;28;20171;-72
2022/11/11 03:17:39;;;;;;;10.90;2.20;;;14.60;92.70;;;;;;5084857;28;20087;-72
2022/11/11 03:23:00;;;;;;;17.00;3.25;;;14.60;92.90;;;;;;5089126;28;19976;-73
2022/11/11 03:25:58;;;;;;;13.13;2.40;;;14.60;93.00;;;;;;5095682;28;20123;-73
2022/11/11 03:28:19;;;;;;;16.63;2.22;;;14.60;93.10;;;;;;5089998;28;20039;-73
2022/11/11 03:30:47;;;;;;;17.95;2.90;;;14.50;93.10;;;;;;5083005;28;20035;-73
2022/11/11 03:33:17;;;;;;;15.27;2.13;;;14.50;93.30;;;;;;5095514;28;20027;-72
2022/11/11 03:35:45;;;;;;;12.02;2.30;;;14.50;93.30;;;;;;5095550;28;20475;-73
2022/11/11 03:38:15;;;;;;;14.07;2.35;;;14.50;93.30;;;;;;5094580;28;20112;-72
2022/11/11 03:40:45;;;;;;;15.35;2.47;;;14.50;93.30;;;;;;5096447;28;20387;-73
2022/11/11 03:43:16;;;;;;;10.07;2.13;;;14.50;93.20;;;;;;5098886;28;20089;-72
2022/11/11 03:45:43;;;;;;;16.73;2.47;;;14.60;93.00;;;;;;5075874;28;20039;-72
2022/11/11 03:48:09;;;;;;;14.35;2.17;;;14.50;92.80;;;;;;5076552;28;20462;-73
2022/11/11 03:50:35;;;;;;;12.35;1.90;;;14.50;92.50;;;;;;5076369;28;20028;-72
2022/11/11 03:53:01;;;;;;;13.13;1.80;;;14.60;92.10;;;;;;5075879;28;20034;-72
2022/11/11 03:55:27;;;;;;;11.93;1.60;;;14.60;91.80;;;;;;5094346;28;20113;-72
2022/11/11 03:57:53;;;;;;;17.67;2.35;;;14.60;91.90;;;;;;5098403;28;20107;-72
2022/11/11 04:00:22;;;;;;;11.82;1.85;;;14.60;91.60;;;;;;5094900;28;20509;-72
2022/11/11 04:11:11;;;;;;;14.32;2.55;;;14.60;92.00;;;;;;5097515;28;20038;-72
2022/11/11 04:16:24;;;;;;;20.27;2.55;;;14.50;92.40;;;;;;5097270;28;20080;-72
2022/11/11 04:21:42;;;;;;;12.07;2.20;;;14.40;92.50;;;;;;5097595;28;20038;-72
2022/11/11 04:27:04;;;;;;;13.73;2.10;;;14.40;92.80;;;;;;5095877;28;20026;-72
2022/11/11 04:29:30;;;;;;;12.10;2.22;;;14.30;93.10;;;;;;5079004;28;20040;-72
2022/11/11 04:35:10;;;;;;;13.43;2.40;;;14.30;92.90;;;;;;5079449;28;20111;-72
2022/11/11 04:37:50;;;;;;;17.77;2.10;;;14.30;93.00;;;;;;5078697;28;20130;-73
2022/11/11 04:43:00;;;;;;;15.48;2.55;;;14.30;93.20;;;;;;5098041;28;20093;-72
2022/11/11 04:45:26;;;;;;;16.30;2.70;;;14.20;93.40;;;;;;5078802;28;20039;-72
2022/11/11 04:48:06;;;;;;;19.88;3.60;;;14.30;93.40;;;;;;5097587;28;20024;-72
2022/11/11 04:50:33;;;;;;;14.98;2.95;;;14.30;93.60;;;;;;5097039;28;20035;-73
2022/11/11 04:53:00;;;;;;;16.30;3.33;;;14.30;93.50;;;;;;5098621;28;20023;-72
2022/11/11 04:58:11;;;;;;;15.75;2.97;;;14.30;93.40;;;;;;5096603;28;20038;-72
2022/11/11 05:00:36;;;;;;;17.88;3.47;;;14.20;93.60;;;;;;5078979;28;20027;-72
2022/11/11 05:03:15;;;;;;;15.77;2.92;;;14.20;93.50;;;;;;5094818;28;20050;-73
2022/11/11 05:08:55;;;;;;;18.45;2.53;;;14.10;93.50;;;;;;5078386;28;20857;-73
2022/11/11 05:11:26;;;;;;;16.48;2.67;;;14.10;93.60;;;;;;5096869;28;20035;-72
2022/11/11 05:22:37;;;;;;;16.55;2.90;;;14.10;93.50;;;;;;5096828;28;20047;-72
2022/11/11 05:27:48;;;;;;;13.88;2.90;;;14.10;93.50;;;;;;5098033;28;20030;-72
2022/11/11 05:30:15;;;;;;;15.95;3.25;;;14.10;93.50;;;;;;5095531;28;20028;-73
2022/11/11 05:32:41;;;;;;;18.30;3.30;;;14.10;93.40;;;;;;5071368;28;20051;-73
2022/11/11 05:35:08;;;;;;;19.08;2.92;;;14.10;93.50;;;;;;5089909;28;20124;-72
2022/11/11 05:37:33;;;;;;;20.58;3.10;;;14.10;93.40;;;;;;5096541;28;20032;-73
2022/11/11 05:39:59;;;;;;;13.00;2.53;;;14.10;93.60;;;;;;5095581;28;20036;-73
2022/11/11 05:42:25;;;;;;;17.60;3.03;;;14.10;93.50;;;;;;5098007;28;20057;-73
2022/11/11 05:44:50;;;;;;;17.35;2.88;;;14.10;93.50;;;;;;5077131;28;20399;-72
2022/11/11 05:47:16;;;;;;;15.27;3.13;;;14.10;93.40;;;;;;5075829;28;20020;-73
2022/11/11 05:49:42;;;;;;;18.15;2.60;;;14.10;93.40;;;;;;5090848;28;20020;-73
2022/11/11 05:52:10;;;;;;;21.13;2.95;;;14.10;93.50;;;;;;5096224;28;20116;-72
2022/11/11 05:54:35;;;;;;;16.00;3.03;;;14.10;93.40;;;;;;5097507;28;20032;-72
2022/11/11 05:57:02;;;;;;;14.30;2.90;;;14.10;93.40;;;;;;5078194;28;20031;-73
2022/11/11 05:59:28;;;;;;;18.05;2.83;;;14.10;93.40;;;;;;5094779;28;20093;-72
2022/11/11 06:01:54;;;;;;;11.13;2.67;;;14.10;93.40;;;;;;5094107;28;20044;-72
2022/11/11 06:04:19;;;;;;;21.48;3.63;;;14.20;93.20;;;;;;5056922;28;20550;-73
2022/11/11 06:06:45;;;;;;;23.10;2.83;;;14.20;93.40;;;;;;5088509;28;20035;-73
2022/11/11 06:09:11;;;;;;;16.98;2.35;;;14.20;93.60;;;;;;5074450;28;20027;-73
2022/11/11 06:11:36;;;;;;;17.65;2.88;;;14.20;93.40;;;;;;5094604;28;20023;-73
2022/11/11 06:14:02;;;;;;;11.65;3.10;;;14.20;93.30;;;;;;5095803;28;20027;-73
2022/11/11 06:16:28;;;;;;;11.18;2.60;;;14.20;93.40;;;;;;5094616;28;20398;-73
2022/11/11 06:18:54;;;;;;;15.50;3.15;;;14.20;93.40;;;;;;5096357;28;20035;-73
2022/11/11 06:21:19;;;;;;;20.60;2.90;;;14.20;93.40;;;;;;5094764;28;20039;-73
2022/11/11 06:23:45;;;;;;;13.88;3.63;;;14.10;93.50;;;;;;5090412;28;20164;-73
2022/11/11 06:26:11;;;;;;;15.75;3.30;;;14.10;93.50;;;;;;5091903;28;20055;-73
2022/11/11 06:28:49;;;;;;;15.00;3.10;;;14.10;93.60;;;;;;5093511;28;20145;-73
2022/11/11 06:31:20;;;;;;;12.82;3.58;;;14.00;93.50;;;;;;5097673;28;20020;-73
2022/11/11 06:33:46;;;;;;;;;;;14.00;93.60;;;;;;5094406;28;20027;-73
2022/11/11 06:36:13;;;;;;;20.05;2.95;;;14.00;93.60;;;;;;5094713;28;19908;-73
2022/11/11 06:38:40;;;;;;;20.15;3.30;;;14.00;93.60;;;;;;5097422;28;20610;-73
2022/11/11 06:41:06;;;;;;;17.75;3.28;;;14.00;93.80;;;;;;5098204;28;20039;-73
2022/11/11 06:43:32;;;;;;;17.00;3.10;;;14.00;93.80;;;;;;5097815;28;20433;-73
2022/11/11 06:45:57;;;;;;;15.77;3.05;;;14.00;93.80;;;;;;5099399;28;20038;-73
2022/11/11 06:48:24;;;;;;;13.18;2.63;;;14.00;93.90;;;;;;5100462;28;20091;-73
2022/11/11 06:50:50;;;;;;;11.82;3.00;;;13.90;93.90;;;;;;5080151;28;20039;-73
2022/11/11 06:53:17;;;;;;;15.68;2.95;;;13.90;93.80;;;;;;5099655;28;20024;-72
2022/11/11 06:55:43;;;;;;;17.15;3.25;;;13.90;94.20;;;;;;5080276;28;20506;-72
2022/11/11 06:58:15;;;;;;;9.10;2.60;;;14.00;93.80;;;;;;5084050;28;20108;-73
2022/11/11 07:00:42;;;;;;;21.13;2.83;;;13.90;94.20;;;;;;5096124;28;20034;-73
2022/11/11 07:03:10;;;;;;;13.32;2.40;;;13.90;93.90;;;;;;5088273;28;20075;-72
2022/11/11 07:05:36;;;;;;;15.35;2.75;;;13.90;93.70;;;;;;5097481;28;20381;-72
2022/11/11 07:08:04;;;;;;;13.07;3.03;;;13.90;93.70;;;;;;5098275;28;20449;-73
2022/11/11 07:10:31;;;;;;;15.02;2.40;;;14.00;93.60;;;;;;5071179;28;20475;-73
2022/11/11 07:12:56;;;;;;;17.33;2.67;;;14.00;93.50;;;;;;5063223;28;20027;-72
2022/11/11 07:15:22;;;;;;;17.85;2.63;;;14.00;93.60;;;;;;5086616;28;20024;-73
2022/11/11 07:17:48;;;;;;;15.27;2.67;;;14.00;93.50;;;;;;5060278;28;20027;-73
2022/11/11 07:20:14;;;;;;;12.75;2.45;;;14.00;93.70;;;;;;5081358;28;20027;-73
2022/11/11 07:22:39;;;;;;;19.27;3.10;;;14.00;93.60;;;;;;5079316;28;20682;-73
2022/11/11 07:25:06;;;;;;;20.65;2.88;;;14.00;93.50;;;;;;5091246;28;20422;-72
2022/11/11 07:27:34;;;;;;;21.83;3.10;;;14.00;93.50;;;;;;5100162;28;20490;-72
2022/11/11 07:30:00;;;;;;;12.68;3.15;;;14.10;93.40;;;;;;5078485;28;20202;-73
2022/11/11 07:32:26;;;;;;;17.25;2.83;;;14.10;93.50;;;;;;5084465;28;20100;-73
2022/11/11 07:34:51;;;;;;;20.90;2.72;;;14.10;93.50;;;;;;5075801;28;20126;-72
2022/11/11 07:37:17;;;;;;;18.30;2.78;;;14.20;93.40;;;;;;5085773;28;20059;-73
2022/11/11 07:39:43;;;;;;;16.83;3.03;;;14.20;93.50;;;;;;5097223;28;20479;-72
2022/11/11 07:42:08;;;;;;;17.27;3.20;;;14.20;93.40;;;;;;5094796;28;20019;-72
2022/11/11 07:44:34;;;;;;;10.75;2.35;;;14.20;93.60;;;;;;5094199;28;20146;-72
2022/11/11 07:46:59;;;;;;;17.50;2.53;;;14.10;93.80;;;;;;5071217;28;20453;-72
2022/11/11 07:49:25;;;;;;;17.20;2.83;;;14.10;93.90;;;;;;5084495;28;20051;-72
2022/11/11 07:51:50;;;;;;;20.25;2.97;;;14.10;93.60;;;;;;5082090;28;20502;-72
2022/11/11 07:54:16;;;;;;;21.98;2.80;;;14.20;93.60;;;;;;5088698;28;20038;-73
2022/11/11 07:56:42;;;;;;;14.70;2.72;;;14.20;93.40;;;;;;5081716;28;20447;-72
2022/11/11 07:59:07;;;;;;;22.35;3.45;;;14.20;93.50;;;;;;5098975;28;20396;-72
2022/11/11 08:01:33;;;;;;;17.65;2.80;;;14.20;93.20;;;;;;5063288;28;20024;-73
2022/11/11 08:03:58;;;;;;;16.48;2.75;;;14.20;93.30;;;;;;5085705;28;20213;-73
2022/11/11 08:06:24;;;;;;;14.07;2.50;;;14.20;93.10;;;;;;5095630;28;20027;-73
2022/11/11 08:08:50;;;;;;;16.13;2.58;;;14.10;93.00;;;;;;5097561;28;20494;-72
2022/11/11 08:11:16;;;;;;;14.88;2.35;;;14.10;92.90;;;;;;5098366;28;20028;-74
2022/11/11 08:13:43;;;;;;;16.23;2.45;;;14.10;92.70;;;;;;5097081;28;20028;-72
2022/11/11 08:16:14;;;;;;;11.23;1.83;;;14.10;93.00;;;;;;5098212;28;20027;-72
2022/11/11 08:18:40;;;;;;;20.45;2.63;;;14.10;92.70;;;;;;5098033;28;20029;-72
2022/11/11 08:21:07;;;;;;;17.02;2.50;;;14.10;92.60;;;;;;5098997;28;20465;-72
2022/11/11 08:23:33;;;;;;;10.98;2.00;;;14.20;92.70;;;;;;5095328;28;20038;-72
2022/11/11 08:26:02;;;;;;;18.20;2.83;;;14.20;92.70;;;;;;5091838;28;20418;-72
2022/11/11 08:28:29;;;;;;;13.90;2.40;;;14.20;92.40;;;;;;5086188;28;20104;-72
2022/11/11 08:30:58;;;;;;;12.65;2.30;;;14.30;92.40;;;;;;5085636;28;20035;-72
2022/11/11 08:33:25;;;;;;;16.58;2.38;;;14.40;92.30;;;;;;5063038;28;20020;-72
2022/11/11 08:35:53;;;;;;;14.55;2.15;;;14.30;92.10;;;;;;5083345;28;20451;-72
2022/11/11 08:38:25;;;;;;;14.57;2.40;;;14.50;92.00;;;;;;5081637;28;20028;-72
2022/11/11 08:40:51;;;;;;;18.60;2.65;;;14.50;92.00;;;;;;5081810;28;20020;-72
2022/11/11 08:43:17;;;;;;;14.65;2.15;;;14.50;91.80;;;;;;5094520;28;20162;-72
2022/11/11 08:45:43;;;;;;;16.25;2.25;;;14.60;91.70;;;;;;5074952;28;20124;-72
2022/11/11 08:48:09;;;;;;;10.35;2.00;;;14.50;91.70;;;;;;5087271;28;20565;-72
2022/11/11 08:50:36;;;;;;;16.08;2.58;;;14.60;91.30;;;;;;5087147;28;20407;-72
2022/11/11 08:53:02;;;;;;;13.38;2.47;;;14.50;91.30;;;;;;5090280;28;20028;-73
2022/11/11 08:55:28;;;;;;;12.30;2.95;;;14.50;91.50;;;;;;5089251;28;20410;-73
2022/11/11 08:58:01;;;;;;;14.70;2.60;;;14.50;91.60;;;;;;5087221;28;20024;-74
2022/11/11 09:00:27;;;;;;;14.57;2.17;;;14.50;91.80;;;;;;5077624;28;20027;-71
2022/11/11 09:02:53;;;;;;;10.63;2.20;;;14.60;91.40;;;;;;5056584;28;20052;-74
2022/11/11 09:05:19;;;;;;;18.52;2.63;;;14.70;90.90;;;;;;5082829;28;20552;-75
2022/11/11 09:07:45;;;;;;;15.23;2.00;;;14.80;90.90;;;;;;5083187;28;20044;-72
2022/11/11 09:10:11;;;;;;;15.02;2.03;;;14.80;90.80;;;;;;4726913;28;10000566;-73
2022/11/11 09:12:37;;;;;;;19.42;2.50;;;14.80;90.60;;;;;;5090864;28;20102;-73
2022/11/11 09:15:02;;;;;;;13.20;2.03;;;14.90;90.50;;;;;;5089627;28;20050;-72
2022/11/11 09:17:28;;;;;;;12.35;2.05;;;14.90;90.80;;;;;;5082945;28;20553;-73
2022/11/11 09:19:54;;;;;;;19.00;2.42;;;15.00;90.20;;;;;;5085932;28;20035;-73
2022/11/11 09:22:19;;;;;;;16.52;2.15;;;15.00;90.10;;;;;;5090111;28;20347;-73
2022/11/11 09:24:46;;;;;;;12.60;2.15;;;15.10;90.20;;;;;;5090426;28;20054;-72
2022/11/11 09:27:11;;;;;;;11.85;1.70;;;15.10;90.10;;;;;;5072299;28;20028;-72
2022/11/11 09:29:37;;;;;;;10.32;1.70;;;15.20;90.20;;;;;;5084236;28;20028;-72
2022/11/11 09:32:03;;;;;;;10.80;1.77;;;15.40;89.80;;;;;;5096446;28;20440;-72
2022/11/11 09:34:29;;;;;;;13.20;2.05;;;15.60;89.40;;;;;;5095477;28;20527;-72
2022/11/11 09:36:54;;;;;;;12.20;2.08;;;15.40;88.90;;;;;;5094530;28;20031;-73
2022/11/11 09:39:20;;;;;;;12.27;2.58;;;15.30;89.80;;;;;;5077592;28;20483;-73
2022/11/11 09:42:09;;;;;;;16.52;2.25;;;15.20;89.30;;;;;;5069746;28;20127;-72
2022/11/11 09:45:10;;;;;;;12.65;2.00;;;15.00;89.80;;;;;;5081425;28;20112;-72
2022/11/11 09:47:48;;;;;;;23.20;3.42;;;14.90;90.20;;;;;;5092252;28;20063;-72
2022/11/11 09:50:25;;;;;;;10.52;2.00;;;14.90;90.50;;;;;;5074233;28;20063;-73
2022/11/11 09:53:06;;;;;;;16.20;2.20;;;14.80;90.60;;;;;;5090948;28;20050;-72
2022/11/11 09:55:47;;;;;;;15.50;2.40;;;14.80;91.20;;;;;;5078404;28;20030;-72
2022/11/11 09:58:21;;;;;;;15.82;1.95;;;14.80;90.70;;;;;;5097156;28;20040;-73
2022/11/11 10:00:55;;;;;;;16.67;2.28;;;14.70;90.70;;;;;;5078496;28;20355;-73
2022/11/11 10:03:24;;;;;;;11.68;2.47;;;14.60;90.40;;;;;;5098280;28;20312;-72
2022/11/11 10:05:58;;;;;;;14.95;2.60;;;14.60;90.80;;;;;;5098073;28;20150;-73
2022/11/11 10:08:43;;;;;;;11.57;2.42;;;14.70;90.80;;;;;;5076897;28;20031;-73
2022/11/11 10:11:39;;;;;;;15.43;2.63;;;14.90;90.40;;;;;;5098336;28;20216;-73
2022/11/11 10:14:04;;;;;;;16.80;2.40;;;15.10;89.30;;;;;;5058374;28;20044;-71
2022/11/11 10:16:49;;;;;;;17.35;3.33;;;15.00;90.20;;;;;;5080466;28;20047;-72
2022/11/11 10:19:29;;;;;;;13.32;2.40;;;15.00;89.10;;;;;;5100301;28;20072;-72
2022/11/11 10:22:00;;;;;;;14.32;2.05;;;15.00;89.70;;;;;;5083444;28;20023;-72
2022/11/11 10:24:33;;;;;;;15.13;2.78;;;15.20;88.60;;;;;;5097719;28;20039;-72
2022/11/11 10:27:05;;;;;;;17.58;2.30;;;15.20;88.50;;;;;;5095369;28;20031;-71
2022/11/11 10:29:43;;;;;;;12.50;2.15;;;15.30;88.70;;;;;;5096142;28;20027;-71
2022/11/11 10:32:32;;;;;;;13.68;2.50;;;15.20;88.10;;;;;;5097575;28;20465;-72
2022/11/11 10:35:24;;;;;;;12.13;2.20;;;15.20;88.20;;;;;;5094629;28;20618;-73
2022/11/11 10:38:21;;;;;;;12.98;2.35;;;15.00;89.70;;;;;;5070093;28;20082;-72
2022/11/11 10:40:54;;;;;;;10.65;2.00;;;14.90;89.10;;;;;;5053853;28;20699;-72
2022/11/11 10:43:25;;;;;;;11.15;1.92;;;15.10;89.70;;;;;;5088708;28;20038;-72
2022/11/11 10:46:18;;;;;;;9.43;2.00;;;15.20;88.60;;;;;;5075410;28;20038;-72
2022/11/11 10:48:49;;;;;;;11.10;2.42;;;15.00;88.70;;;;;;5070169;28;20131;-73
2022/11/11 10:51:16;;;;;;;11.85;2.10;;;15.00;89.40;;;;;;5090417;28;20043;-72
2022/11/11 10:53:45;;;;;;;11.10;2.53;;;15.20;90.00;;;;;;5068191;28;20016;-72
2022/11/11 10:56:42;;;;;;;14.15;2.00;;;15.10;88.40;;;;;;5084743;28;20058;-73
2022/11/11 10:59:14;;;;;;;11.10;2.00;;;15.00;88.00;;;;;;5061412;28;20046;-72
2022/11/11 11:02:05;;;;;;;12.07;2.08;;;14.90;89.60;;;;;;5094903;28;20494;-72
2022/11/11 11:04:39;;;;;;;13.45;1.60;;;14.90;88.40;;;;;;5068275;28;21465;-72
2022/11/11 11:07:07;;;;;;;12.10;1.70;;;14.90;88.10;;;;;;5086966;28;20054;-72
2022/11/11 11:09:58;;;;;;;9.25;2.45;;;15.00;88.70;;;;;;5085341;28;20108;-72
2022/11/11 11:12:33;;;;;;;12.20;2.38;;;14.90;89.20;;;;;;5083907;28;20369;-72
2022/11/11 11:15:04;;;;;;;9.88;1.75;;;14.90;89.80;;;;;;5083733;28;20106;-72
2022/11/11 11:18:04;;;;;;;15.40;1.77;;;14.80;89.60;;;;;;4859006;28;10000913;-72
2022/11/11 11:20:30;;;;;;;12.32;1.65;;;14.80;89.80;;;;;;5077850;28;20730;-73
2022/11/11 11:22:58;;;;;;;14.52;2.55;;;15.00;89.10;;;;;;5097137;28;20055;-72
2022/11/11 11:25:25;;;;;;;12.70;1.95;;;15.00;88.20;;;;;;5077561;28;20216;-72
2022/11/11 11:28:03;;;;;;;9.75;1.90;;;15.10;89.70;;;;;;5096376;28;20502;-73
2022/11/11 11:30:28;;;;;;;12.05;1.80;;;15.10;87.70;;;;;;5079231;28;20054;-73
2022/11/11 11:33:03;;;;;;;8.57;1.70;;;15.00;88.20;;;;;;5090682;28;20475;-72
2022/11/11 11:35:39;;;;;;;13.68;1.95;;;15.10;88.30;;;;;;5096280;28;20028;-72
2022/11/11 11:38:07;;;;;;;7.68;1.80;;;15.20;87.10;;;;;;5094574;28;20043;-72
2022/11/11 11:40:46;;;;;;;17.13;2.20;;;15.10;89.20;;;;;;5083134;28;20716;-73
2022/11/11 11:43:36;;;;;;;10.10;1.77;;;15.40;87.20;;;;;;5085359;28;20463;-72
2022/11/11 11:46:34;;;;;;;10.05;2.10;;;15.50;87.00;;;;;;5086209;28;20559;-73
2022/11/11 11:48:59;;;;;;;15.30;2.40;;;15.40;86.60;;;;;;5089317;28;20062;-73
2022/11/11 11:51:55;;;;;;;13.23;1.90;;;15.30;86.90;;;;;;5099176;28;20035;-72
2022/11/11 11:54:32;;;;;;;13.40;1.92;;;15.20;88.00;;;;;;5098859;28;20267;-72
2022/11/11 11:57:12;;;;;;;10.45;1.67;;;15.30;88.20;;;;;;5092575;28;20032;-73
2022/11/11 12:00:01;;;;;;;10.18;1.75;;;15.60;86.40;;;;;;5087287;28;20031;-73
2022/11/11 12:02:29;;;;;;;10.98;1.73;;;15.80;85.20;;;;;;5095890;28;20091;-72
2022/11/11 12:05:07;;;;;;;11.75;1.88;;;16.20;84.30;;;;;;5097654;28;20048;-72
2022/11/11 12:07:59;;;;;;;10.93;1.85;;;16.50;84.90;;;;;;5077993;28;20451;-73
2022/11/11 12:11:04;;;;;;;9.90;1.80;;;17.10;82.30;;;;;;5094234;28;20051;-73
2022/11/11 12:13:44;;;;;;;13.30;1.83;;;17.10;78.60;;;;;;5062801;28;20031;-73
2022/11/11 12:16:19;;;;;;;9.85;1.83;;;17.60;78.20;;;;;;5090750;28;20063;-72
2022/11/11 12:19:03;;;;;;;10.65;1.60;;;17.70;78.30;;;;;;5076201;28;20087;-72
2022/11/11 12:21:54;;;;;;;8.15;1.58;;;17.70;78.00;;;;;;5095745;28;20483;-72
2022/11/11 12:24:23;;;;;;;11.95;1.60;;;17.60;75.90;;;;;;5075695;28;20045;-72
2022/11/11 12:27:05;;;;;;;17.88;1.65;;;17.60;76.60;;;;;;5078239;28;20444;-72
2022/11/11 12:29:58;;;;;;;10.65;1.50;;;17.80;77.80;;;;;;5094671;28;20110;-72
2022/11/11 12:32:51;;;;;;;9.80;1.67;;;18.30;74.30;;;;;;5068303;28;20047;-72
2022/11/11 12:35:22;;;;;;;10.15;1.70;;;18.60;72.30;;;;;;5072014;28;20415;-72
2022/11/11 12:38:03;;;;;;;9.93;1.70;;;18.40;73.40;;;;;;5084406;28;20133;-72
2022/11/11 12:40:40;;;;;;;9.97;1.63;;;18.00;74.80;;;;;;5092282;28;20164;-72
2022/11/11 12:43:49;;;;;;;12.38;1.65;;;17.80;76.50;;;;;;5094611;28;20035;-72
2022/11/11 12:46:18;;;;;;;14.85;1.70;;;17.50;76.70;;;;;;5074890;28;20067;-73
2022/11/11 12:48:52;;;;;;;16.17;1.88;;;17.20;77.30;;;;;;5071695;28;20399;-73
2022/11/11 12:51:32;;;;;;;12.18;1.40;;;17.20;79.00;;;;;;5087533;28;20471;-72
2022/11/11 12:54:31;;;;;;;10.20;1.70;;;17.40;77.70;;;;;;5093572;28;20596;-72
2022/11/11 12:57:42;;;;;;;10.00;1.52;;;17.60;78.80;;;;;;5086257;28;20066;-72
2022/11/11 13:00:21;;;;;;;9.40;1.75;;;17.00;78.50;;;;;;5058308;28;20082;-72
2022/11/11 13:03:38;;;;;;;10.43;1.65;;;16.40;80.80;;;;;;5088867;28;20047;-72
2022/11/11 13:06:12;;;;;;;9.48;1.63;;;16.40;81.70;;;;;;4988606;28;20653;-72
2022/11/11 13:08:46;;;;;;;11.35;1.70;;;16.30;82.40;;;;;;4989854;28;20042;-72
2022/11/11 13:11:32;;;;;;;9.70;1.70;;;16.20;82.90;;;;;;5041946;28;20114;-72
2022/11/11 13:14:07;;;;;;;9.25;1.77;;;15.90;83.70;;;;;;5090398;28;20036;-72
2022/11/11 13:16:32;;;;;;;11.60;2.08;;;15.70;85.30;;;;;;5093182;28;20454;-72
2022/11/11 13:19:21;;;;;;;11.20;1.85;;;15.50;85.60;;;;;;5096197;28;20042;-72
2022/11/11 13:21:50;;;;;;;9.13;1.50;;;15.50;87.10;;;;;;5066797;28;20031;-72
2022/11/11 13:24:20;;;;;;;7.90;1.58;;;15.60;85.30;;;;;;5071806;28;20047;-72
2022/11/11 13:27:27;;;;;;;10.30;1.98;;;15.60;85.10;;;;;;5083304;28;20026;-72
2022/11/11 13:30:21;;;;;;;11.30;2.17;;;15.60;85.40;;;;;;5047441;28;20180;-72
2022/11/11 13:32:52;;;;;;;11.60;1.80;;;15.60;85.90;;;;;;5086285;28;20035;-72
2022/11/11 13:35:20;;;;;;;10.25;1.77;;;15.50;86.40;;;;;;5088605;28;20035;-72
2022/11/11 13:37:46;;;;;;;9.15;1.85;;;15.60;86.90;;;;;;5093469;28;20050;-72
2022/11/11 13:40:30;;;;;;;12.95;1.98;;;15.80;86.90;;;;;;5074779;28;20182;-72
2022/11/11 13:42:55;;;;;;;7.90;1.60;;;15.80;85.80;;;;;;5079084;28;20569;-72
2022/11/11 13:45:33;;;;;;;6.65;1.73;;;15.90;85.00;;;;;;5076063;28;20181;-71
2022/11/11 13:48:00;;;;;;;9.52;1.50;;;15.90;84.70;;;;;;5100030;28;20509;-72
2022/11/11 13:50:36;;;;;;;14.25;2.10;;;15.80;85.00;;;;;;5098947;28;20046;-72
2022/11/11 13:53:04;;;;;;;5.32;1.60;;;15.80;84.20;;;;;;5092475;28;20020;-71
2022/11/11 13:55:42;;;;;;;7.65;1.40;;;15.60;84.70;;;;;;5100852;28;20030;-72
2022/11/11 13:58:26;;;;;;;7.60;1.50;;;15.60;85.60;;;;;;5095217;28;20054;-71
2022/11/11 14:01:00;;;;;;;9.80;1.65;;;15.60;85.90;;;;;;5072645;28;20035;-72
2022/11/11 14:03:25;;;;;;;7.70;1.65;;;15.60;85.40;;;;;;5080958;28;20035;-71
2022/11/11 14:06:13;;;;;;;10.68;1.95;;;15.60;85.30;;;;;;5078888;28;20347;-72
2022/11/11 14:08:44;;;;;;;8.20;1.98;;;15.40;86.60;;;;;;5079298;28;20813;-72